createdAt,value
2022-08-22T00:02:26.784Z,100.00
2022-08-22T00:02:44.021Z,100.00
2022-08-22T00:02:45.888Z,100.00
2022-08-22T00:03:10.012Z,100.00
2022-08-22T00:07:46.725Z,100.00
2022-08-22T00:13:12.970Z,100.00
2022-08-22T00:18:28.878Z,100.00
2022-08-22T00:24:01.065Z,100.00
2022-08-22T00:29:09.198Z,100.00
2022-08-22T00:34:24.582Z,100.00
2022-08-22T00:39:45.337Z,100.00
2022-08-22T00:45:11.654Z,100.00
2022-08-22T00:50:34.829Z,100.00
2022-08-22T00:55:51.759Z,100.00
2022-08-22T01:01:03.334Z,100.00
2022-08-22T01:06:44.459Z,100.00
2022-08-22T01:12:05.794Z,100.00
2022-08-22T01:17:15.252Z,100.00
2022-08-22T01:22:55.527Z,100.00
2022-08-22T01:28:20.139Z,100.00
2022-08-22T01:33:26.417Z,100.00
2022-08-22T01:38:58.400Z,100.00
2022-08-22T01:44:20.859Z,100.00
2022-08-22T01:49:37.483Z,100.00
2022-08-22T01:54:59.327Z,100.00
2022-08-22T02:00:09.090Z,100.00
2022-08-22T02:05:25.280Z,100.00
2022-08-22T02:10:44.076Z,100.00
2022-08-22T02:15:53.723Z,100.00
2022-08-22T02:21:06.059Z,100.00
2022-08-22T02:26:29.545Z,100.00
2022-08-22T02:31:48.724Z,100.00
2022-08-22T02:37:05.244Z,100.00
2022-08-22T02:42:29.446Z,100.00
2022-08-22T02:47:41.983Z,100.00
2022-08-22T02:53:05.969Z,100.00
2022-08-22T02:58:24.845Z,100.00
2022-08-22T03:03:36.553Z,100.00
2022-08-22T03:09:01.060Z,100.00
2022-08-22T03:14:20.242Z,100.00
2022-08-22T03:19:50.248Z,100.00
2022-08-22T03:25:05.999Z,100.00
2022-08-22T03:30:19.942Z,100.00
2022-08-22T03:35:31.186Z,100.00
2022-08-22T03:40:46.740Z,100.00
2022-08-22T03:46:08.481Z,100.00
2022-08-22T03:51:32.634Z,100.00
2022-08-22T03:57:13.784Z,100.00
2022-08-22T04:02:44.254Z,100.00
2022-08-22T04:08:19.692Z,100.00
2022-08-22T04:13:37.539Z,100.00
2022-08-22T04:19:00.847Z,100.00
2022-08-22T04:24:16.519Z,100.00
2022-08-22T04:29:22.082Z,100.00
2022-08-22T04:34:36.966Z,100.00
2022-08-22T04:39:57.619Z,100.00
2022-08-22T04:45:19.632Z,100.00
2022-08-22T04:50:43.517Z,100.00
2022-08-22T04:56:04.133Z,100.00
2022-08-22T05:01:39.936Z,100.00
2022-08-22T05:06:50.247Z,100.00
2022-08-22T05:11:59.644Z,100.00
2022-08-22T05:17:07.770Z,100.00
2022-08-22T05:22:19.478Z,100.00
2022-08-22T05:27:33.744Z,100.00
2022-08-22T05:32:58.197Z,100.00
2022-08-22T05:38:03.719Z,100.00
2022-08-22T05:43:12.040Z,100.00
2022-08-22T05:48:21.188Z,100.00
2022-08-22T05:53:24.502Z,100.00
2022-08-22T05:58:47.982Z,100.00
2022-08-22T06:04:14.436Z,100.00
2022-08-22T06:09:24.198Z,100.00
2022-08-22T06:14:57.008Z,100.00
2022-08-22T06:20:01.030Z,100.00
2022-08-22T06:25:14.581Z,100.00
2022-08-22T06:30:19.560Z,100.00
2022-08-22T06:35:28.581Z,100.00
2022-08-22T06:40:32.191Z,100.00
2022-08-22T06:45:36.116Z,100.00
2022-08-22T06:50:44.650Z,100.00
2022-08-22T06:55:52.775Z,100.00
2022-08-22T07:01:11.192Z,100.00
2022-08-22T07:06:28.171Z,100.00
2022-08-22T07:11:42.892Z,100.00
2022-08-22T07:17:01.630Z,100.00
2022-08-22T07:22:54.101Z,100.00
2022-08-22T07:28:06.960Z,100.00
2022-08-22T07:33:26.862Z,100.00
2022-08-22T07:38:47.354Z,100.00
2022-08-22T07:43:55.571Z,100.00
2022-08-22T07:49:22.227Z,100.00
2022-08-22T07:54:45.806Z,100.00
2022-08-22T07:59:54.239Z,100.00
2022-08-22T08:05:00.825Z,99.94
2022-08-22T08:10:12.964Z,99.85
2022-08-22T08:15:20.743Z,99.94
2022-08-22T08:20:27.579Z,99.36
2022-08-22T08:25:48.582Z,98.93
2022-08-22T08:31:02.744Z,98.86
2022-08-22T08:36:31.560Z,97.56
2022-08-22T08:41:49.711Z,97.26
2022-08-22T08:47:06.135Z,96.84
2022-08-22T08:52:44.274Z,94.88
2022-08-22T08:57:51.466Z,90.71
2022-08-22T09:03:07.179Z,89.00
2022-08-22T09:08:23.175Z,82.78
2022-08-22T09:13:40.882Z,81.29
2022-08-22T09:19:12.199Z,81.39
2022-08-22T09:24:28.108Z,82.29
2022-08-22T09:29:51.420Z,82.84
2022-08-22T09:35:01.797Z,81.58
2022-08-22T09:40:18.897Z,82.73
2022-08-22T09:46:02.405Z,83.96
2022-08-22T09:51:32.541Z,85.01
2022-08-22T09:57:27.813Z,85.64
2022-08-22T10:03:02.146Z,85.44
2022-08-22T10:08:34.666Z,84.09
2022-08-22T10:13:47.684Z,83.57
2022-08-22T10:19:32.367Z,82.59
2022-08-22T10:25:11.627Z,81.64
2022-08-22T10:30:20.973Z,82.08
2022-08-22T10:35:34.035Z,81.53
2022-08-22T10:40:50.021Z,80.11
2022-08-22T10:46:02.342Z,79.09
2022-08-22T10:51:25.374Z,78.49
2022-08-22T10:56:43.944Z,78.48
2022-08-22T11:02:25.594Z,77.40
2022-08-22T11:07:29.315Z,76.04
2022-08-22T11:12:44.642Z,74.55
2022-08-22T11:18:15.872Z,73.12
2022-08-22T11:23:44.990Z,72.01
2022-08-22T11:29:13.548Z,72.94
2022-08-22T11:34:34.106Z,74.10
2022-08-22T11:39:58.233Z,73.14
2022-08-22T11:45:07.977Z,71.96
2022-08-22T11:50:44.570Z,67.87
2022-08-22T11:56:13.981Z,68.55
2022-08-22T12:01:24.255Z,68.09
2022-08-22T12:06:40.512Z,68.23
2022-08-22T12:11:43.734Z,68.00
2022-08-22T12:17:28.571Z,66.45
2022-08-22T12:23:10.887Z,66.59
2022-08-22T12:28:53.831Z,66.47
2022-08-22T12:34:07.897Z,66.82
2022-08-22T12:39:24.822Z,65.71
2022-08-22T12:44:42.980Z,65.55
2022-08-22T12:50:06.536Z,65.07
2022-08-22T12:55:33.540Z,65.32
2022-08-22T13:00:45.221Z,65.62
2022-08-22T13:05:57.121Z,65.64
2022-08-22T13:11:15.105Z,66.79
2022-08-22T13:16:41.051Z,66.25
2022-08-22T13:22:02.690Z,64.70
2022-08-22T13:27:21.666Z,63.66
2022-08-22T13:32:35.223Z,63.19
2022-08-22T13:37:45.185Z,62.45
2022-08-22T13:43:03.448Z,63.13
2022-08-22T13:48:14.436Z,62.85
2022-08-22T13:53:39.527Z,63.68
2022-08-22T13:58:47.069Z,64.50
2022-08-22T14:04:00.837Z,63.92
2022-08-22T14:09:31.559Z,64.05
2022-08-22T14:14:40.932Z,64.05
2022-08-22T14:19:52.841Z,64.39
2022-08-22T14:25:02.916Z,64.71
2022-08-22T14:30:09.468Z,66.03
2022-08-22T14:35:23.505Z,66.58
2022-08-22T14:40:35.374Z,67.19
2022-08-22T14:45:44.417Z,68.49
2022-08-22T14:50:59.199Z,68.84
2022-08-22T14:56:02.712Z,69.80
2022-08-22T15:01:18.576Z,70.05
2022-08-22T15:06:36.574Z,70.53
2022-08-22T15:11:49.381Z,70.87
2022-08-22T15:16:52.971Z,71.17
2022-08-22T15:22:13.716Z,71.76
2022-08-22T15:27:20.640Z,72.81
2022-08-22T15:32:29.404Z,72.78
2022-08-22T15:37:37.398Z,72.35
2022-08-22T15:42:51.616Z,72.44
2022-08-22T15:47:59.449Z,72.95
2022-08-22T15:53:30.110Z,73.31
2022-08-22T15:58:48.759Z,73.53
2022-08-22T16:04:03.484Z,73.75
2022-08-22T16:09:07.510Z,73.54
2022-08-22T16:14:42.872Z,74.03
2022-08-22T16:19:46.181Z,74.72
2022-08-22T16:24:58.245Z,75.04
2022-08-22T16:30:10.609Z,75.28
2022-08-22T16:35:52.437Z,75.76
2022-08-22T16:40:55.950Z,76.30
2022-08-22T16:45:59.569Z,76.86
2022-08-22T16:51:07.916Z,77.01
2022-08-22T16:56:25.748Z,77.24
2022-08-22T17:02:00.433Z,77.34
2022-08-22T17:07:18.553Z,77.38
2022-08-22T17:12:37.737Z,77.64
2022-08-22T17:18:17.276Z,77.93
2022-08-22T17:23:48.466Z,78.27
2022-08-22T17:28:57.915Z,78.64
2022-08-22T17:34:33.280Z,79.08
2022-08-22T17:40:15.550Z,79.57
2022-08-22T17:45:48.305Z,80.33
2022-08-22T17:51:03.951Z,80.79
2022-08-22T17:56:20.017Z,81.48
2022-08-22T18:01:41.826Z,82.11
2022-08-22T18:06:56.454Z,82.36
2022-08-22T18:12:08.244Z,82.68
2022-08-22T18:17:32.061Z,83.05
2022-08-22T18:22:54.950Z,83.54
2022-08-22T18:28:05.059Z,83.92
2022-08-22T18:33:51.807Z,84.32
2022-08-22T18:39:06.078Z,84.75
2022-08-22T18:44:18.604Z,84.98
2022-08-22T18:49:24.883Z,85.34
2022-08-22T18:54:43.962Z,85.77
2022-08-22T19:00:02.539Z,85.95
2022-08-22T19:05:28.271Z,86.34
2022-08-22T19:11:08.585Z,86.71
2022-08-22T19:16:31.730Z,87.23
2022-08-22T19:21:55.613Z,87.55
2022-08-22T19:27:11.214Z,88.03
2022-08-22T19:32:45.964Z,88.52
2022-08-22T19:38:01.104Z,88.96
2022-08-22T19:43:25.406Z,89.54
2022-08-22T19:48:53.155Z,90.26
2022-08-22T19:54:16.287Z,90.68
2022-08-22T19:59:35.194Z,91.25
2022-08-22T20:05:05.742Z,91.64
2022-08-22T20:10:28.679Z,92.30
2022-08-22T20:15:33.930Z,92.63
2022-08-22T20:20:56.522Z,93.08
2022-08-22T20:26:01.119Z,93.35
2022-08-22T20:31:12.792Z,93.81
2022-08-22T20:36:28.610Z,94.39
2022-08-22T20:41:37.732Z,94.85
2022-08-22T20:46:55.334Z,95.35
2022-08-22T20:52:14.969Z,95.67
2022-08-22T20:57:20.124Z,96.05
2022-08-22T21:02:38.595Z,96.20
2022-08-22T21:07:45.318Z,96.16
2022-08-22T21:13:04.973Z,96.63
2022-08-22T21:18:09.581Z,96.70
2022-08-22T21:23:15.728Z,97.10
2022-08-22T21:28:42.140Z,97.52
2022-08-22T21:33:48.733Z,97.38
2022-08-22T21:39:06.688Z,97.18
2022-08-22T21:44:27.815Z,97.13
2022-08-22T21:49:31.267Z,97.29
2022-08-22T21:54:40.287Z,97.35
2022-08-22T21:59:51.576Z,97.53
2022-08-22T22:05:09.728Z,97.81
2022-08-22T22:10:18.042Z,98.05
2022-08-22T22:15:25.154Z,98.19
2022-08-22T22:20:28.578Z,98.41
2022-08-22T22:25:40.446Z,98.88
2022-08-22T22:30:46.044Z,98.92
2022-08-22T22:35:50.277Z,99.31
2022-08-22T22:40:53.893Z,99.78
2022-08-22T22:45:57.942Z,100.00
2022-08-22T22:51:10.796Z,100.00
2022-08-22T22:56:21.331Z,100.00
2022-08-22T23:01:27.811Z,100.00
2022-08-22T23:06:32.956Z,100.00
2022-08-22T23:11:36.491Z,100.00
2022-08-22T23:16:40.323Z,100.00
2022-08-22T23:21:46.564Z,100.00
2022-08-22T23:26:49.781Z,100.00
2022-08-22T23:31:55.367Z,100.00
2022-08-22T23:37:00.930Z,100.00
2022-08-22T23:42:06.233Z,100.00
2022-08-22T23:47:10.623Z,100.00
2022-08-22T23:52:14.141Z,100.00
2022-08-22T23:57:17.491Z,100.00
